Latest Weather Observations for Cape Willoughby

IDS60801

Issued at 9:31 am CST Sunday 5 July 2015 (issued every 30 minutes, with the page automatically refreshed every 10 minutes)

About weather observations | Map of weather stations | Latest weather observations for SA | Other Formats
Station Details ID: 022803 Name: CAPE WILLOUGHBY Lat: -35.84 Lon: 138.13 Height: 55.0 m
Data from the previous 72 hours. | See also: Recent months at Cape Willoughby
Date/Time
CST
Temp
°C
App
Temp
°C
Dew
Point
Rel
Hum
%
Delta-T
°C
Wind Press
QNH
hPa
Press
MSL
hPa
Rain
since 9 am
mm
Dir
 
Spd
km/h
Gust
km/h
Spd
kts
Gust
kts
05/09:30am 13.3 5.2 9.9 80 1.7 NNW 43 54 23 29 1018.2 1018.3 0.0
05/09:00am 12.9 4.6 9.4 79 1.8 NNW 43 56 23 30 1018.2 1018.3 0.0
05/08:30am 12.6 4.8 9.6 82 1.5 NNW 41 57 22 31 1018.3 1018.4 0.0
05/08:00am 12.7 4.0 9.9 83 1.4 NNW 46 54 25 29 1018.0 1018.1 0.0
05/07:30am 12.3 4.7 10.4 88 1.0 NNW 41 48 22 26 1018.3 1018.4 0.0
05/07:00am 12.2 4.2 10.3 88 1.0 N 43 48 23 26 1018.1 1018.2 0.0
05/06:30am 12.2 4.4 9.9 86 1.2 NNW 41 50 22 27 1018.1 1018.2 0.0
05/06:00am 12.2 5.2 10.1 87 1.1 NNW 37 46 20 25 1018.1 1018.2 0.0
05/05:30am 12.1 5.2 10.3 89 0.9 NNW 37 43 20 23 1018.1 1018.2 0.0
05/05:00am 12.2 5.3 10.3 88 1.0 NNW 37 44 20 24 1018.2 1018.3 0.0
05/04:30am 12.5 5.8 9.7 83 1.4 NNW 35 44 19 24 1018.2 1018.3 0.0
05/04:00am 12.6 5.5 9.6 82 1.5 NNW 37 44 20 24 1018.2 1018.3 0.0
05/03:30am 12.6 5.6 10.0 84 1.3 NNW 37 46 20 25 1018.4 1018.5 0.0
05/03:00am 12.5 5.4 9.7 83 1.4 NNW 37 48 20 26 1018.6 1018.7 0.0
05/02:30am 12.6 5.9 9.8 83 1.4 NNW 35 43 19 23 1018.7 1018.8 0.0
05/02:00am 12.4 5.1 10.1 86 1.2 NNW 39 50 21 27 1018.7 1018.8 0.0
05/01:30am 12.6 5.1 11.0 90 0.8 NNW 41 46 22 25 1018.7 1018.8 0.0
05/01:00am 12.7 5.8 10.4 86 1.2 NNW 37 44 20 24 1019.1 1019.2 0.0
05/12:30am 12.7 6.5 10.1 84 1.3 NNW 33 41 18 22 1019.5 1019.6 0.0
05/12:00am 12.7 6.5 9.9 83 1.4 NNW 33 41 18 22 1019.8 1019.9 0.0
 
Date/Time
CST
Temp
°C
App
Temp
°C
Dew
Point
Rel
Hum
%
Delta-T
°C
Wind Press
QNH
hPa
Press
MSL
hPa
Rain
since 9 am
mm
Dir
 
Spd
km/h
Gust
km/h
Spd
kts
Gust
kts
04/11:30pm 12.6 6.9 9.8 83 1.4 NNW 30 39 16 21 1020.1 1020.1 0.0
04/11:00pm 12.5 7.6 10.0 85 1.3 NNW 26 33 14 18 1020.3 1020.3 0.0
04/10:30pm 12.6 7.4 10.1 85 1.3 NNW 28 33 15 18 1020.4 1020.4 0.0
04/10:00pm 12.2 8.4 9.9 86 1.2 NNW 20 26 11 14 1020.6 1020.6 0.0
04/09:30pm 12.4 8.7 10.0 85 1.2 NNW 20 22 11 12 1020.7 1020.7 0.0
04/09:00pm 12.5 8.8 9.5 82 1.5 NNW 19 22 10 12 1020.9 1020.9 0.0
04/08:30pm 12.9 8.7 9.7 81 1.6 NNW 22 28 12 15 1021.0 1021.0 0.0
04/08:00pm 13.1 8.2 10.1 82 1.6 NNW 26 30 14 16 1020.9 1020.9 0.0
04/07:30pm 13.0 7.6 9.4 79 1.8 NNW 28 33 15 18 1020.9 1020.9 0.0
04/07:00pm 12.5 7.8 9.3 81 1.6 NNW 24 30 13 16 1021.1 1021.1 0.0
04/06:30pm 12.3 7.5 8.8 79 1.7 NNW 24 28 13 15 1021.4 1021.4 0.0
04/06:00pm 12.2 7.8 8.9 80 1.6 NNW 22 26 12 14 1021.1 1021.1 0.0
04/05:30pm 12.4 8.0 9.1 80 1.7 NNW 22 26 12 14 1021.1 1021.1 0.0
04/05:00pm 12.8 8.5 9.3 79 1.8 NW 22 28 12 15 1021.1 1021.1 0.0
04/04:30pm 13.3 7.9 9.4 77 2.0 NNW 28 33 15 18 1020.8 1020.8 0.0
04/04:00pm 13.8 8.5 10.0 78 2.0 NNW 28 32 15 17 1020.9 1020.9 0.0
04/03:30pm 13.9 8.7 10.1 78 2.0 NNW 28 33 15 18 1021.0 1021.0 0.0
04/03:00pm 14.3 9.1 10.3 77 2.1 NNW 28 35 15 19 1020.9 1020.9 0.0
04/02:30pm 14.3 9.1 10.1 76 2.2 NNW 28 32 15 17 1021.0 1021.0 0.0
04/02:00pm 14.3 8.7 10.3 77 2.1 NNW 30 37 16 20 1021.2 1021.2 0.0
04/01:30pm 14.1 8.4 11.1 82 1.6 NNW 32 39 17 21 1021.5 1021.5 0.0
04/01:00pm 13.6 7.6 10.8 83 1.5 NNW 33 41 18 22 1021.9 1021.9 0.0
04/12:30pm 12.9 7.0 10.3 84 1.3 NNW 32 39 17 21 1022.2 1022.2 0.0
04/12:00pm 13.2 7.4 10.9 86 1.2 NNW 32 41 17 22 1022.6 1022.6 0.0
04/11:30am 12.9 7.4 10.6 86 1.2 NNW 30 39 16 21 1023.1 1023.1 0.0
04/11:00am 13.0 6.8 10.2 83 1.4 NNW 33 39 18 21 1023.5 1023.5 0.0
04/10:30am 13.0 7.5 10.5 85 1.3 NNW 30 35 16 19 1023.6 1023.6 0.0
04/10:00am 12.8 7.2 10.0 83 1.4 NNW 30 39 16 21 1023.7 1023.7 0.0
04/09:30am 12.8 7.5 9.8 82 1.5 NNW 28 37 15 20 1023.6 1023.6 0.0
04/09:00am 12.6 7.0 10.0 84 1.3 NNW 30 33 16 18 1023.4 1023.4 0.0
04/08:30am 12.4 6.8 10.0 85 1.2 NNW 30 35 16 19 1023.3 1023.3 0.0
04/08:00am 12.3 6.3 10.0 86 1.2 NNW 32 37 17 20 1023.3 1023.3 0.0
04/07:30am 12.2 6.6 10.1 87 1.1 NNW 30 37 16 20 1023.1 1023.1 0.0
04/07:00am 12.1 6.4 9.7 85 1.2 NNW 30 35 16 19 1023.0 1023.0 0.0
04/06:30am 11.6 5.3 8.8 83 1.4 NW 32 39 17 21 1022.7 1022.7 0.0
04/06:00am 11.8 5.9 9.0 83 1.4 NW 30 35 16 19 1022.4 1022.4 0.0
04/05:30am 11.8 6.1 9.7 87 1.1 NW 30 33 16 18 1022.3 1022.3 0.0
04/05:00am 12.0 6.0 10.1 88 1.0 NW 32 39 17 21 1022.3 1022.3 0.0
04/04:30am 12.1 5.9 10.2 88 1.0 NNW 33 41 18 22 1022.5 1022.5 0.0
04/04:00am 12.1 6.2 10.3 89 0.9 NNW 32 39 17 21 1022.5 1022.5 0.0
04/03:30am 11.6 5.5 9.9 89 0.9 NW 32 37 17 20 1022.8 1022.8 0.0
04/03:00am 11.7 5.3 9.4 86 1.2 NW 33 41 18 22 1022.7 1022.7 0.0
04/02:30am 11.6 6.1 9.2 85 1.2 NW 28 35 15 19 1022.7 1022.7 0.0
04/02:00am 11.7 7.7 9.1 84 1.3 NW 20 24 11 13 1023.3 1023.3 0.0
04/01:30am 11.8 7.8 9.2 84 1.3 NW 20 26 11 14 1023.5 1023.5 0.0
04/01:00am 11.9 7.5 9.1 83 1.4 NNW 22 28 12 15 1023.5 1023.5 0.0
04/12:30am 11.9 7.9 9.1 83 1.4 NW 20 26 11 14 1023.8 1023.8 0.0
04/12:00am 11.9 7.5 9.1 83 1.4 NNW 22 30 12 16 1024.1 1024.1 0.0
 
Date/Time
CST
Temp
°C
App
Temp
°C
Dew
Point
Rel
Hum
%
Delta-T
°C
Wind Press
QNH
hPa
Press
MSL
hPa
Rain
since 9 am
mm
Dir
 
Spd
km/h
Gust
km/h
Spd
kts
Gust
kts
03/11:30pm 11.9 7.5 8.9 82 1.5 NNW 22 26 12 14 1024.3 1024.3 0.0
03/11:00pm 11.9 7.4 8.6 80 1.6 NW 22 26 12 14 1024.5 1024.5 0.0
03/10:30pm 11.7 7.5 8.4 80 1.6 NNW 20 28 11 15 1024.6 1024.6 0.0
03/10:00pm 11.7 7.1 8.2 79 1.7 NNW 22 28 12 15 1024.9 1024.9 0.0
03/09:30pm 11.5 6.1 8.0 79 1.7 NW 26 32 14 17 1025.1 1025.1 0.0
03/09:00pm 11.4 6.7 7.7 78 1.8 NW 22 28 12 15 1025.2 1025.2 0.0
03/08:30pm 11.3 6.5 7.4 77 1.9 NW 22 30 12 16 1025.2 1025.2 0.0
03/08:00pm 11.4 6.3 7.5 77 1.9 NNW 24 32 13 17 1025.2 1025.2 0.0
03/07:30pm 11.2 6.3 7.1 76 2.0 NW 22 28 12 15 1025.4 1025.4 0.0
03/07:00pm 11.3 6.4 7.0 75 2.1 NW 22 30 12 16 1025.2 1025.2 0.0
03/06:30pm 11.3 6.4 7.0 75 2.0 NW 22 28 12 15 1025.2 1025.2 0.0
03/06:00pm 11.1 6.6 6.8 75 2.0 NW 20 26 11 14 1025.2 1025.2 0.0
03/05:30pm 11.2 6.3 6.9 75 2.0 NNW 22 28 12 15 1025.3 1025.3 0.0
03/05:00pm 11.3 6.0 7.0 75 2.1 NNW 24 32 13 17 1025.4 1025.4 0.0
03/04:30pm 11.2 5.9 6.9 75 2.0 NNW 24 37 13 20 1025.5 1025.5 0.0
03/04:00pm 11.4 5.5 7.3 76 2.0 NNW 28 35 15 19 1025.7 1025.7 0.0
03/03:30pm 11.3 4.8 6.6 73 2.2 NNW 30 37 16 20 1025.6 1025.6 0.0
03/03:00pm 11.4 5.0 6.9 74 2.1 N 30 35 16 19 1025.5 1025.5 0.0
03/02:30pm 11.6 4.8 6.7 72 2.3 NNW 32 35 17 19 1025.8 1025.8 0.0
03/02:00pm 11.7 5.6 6.8 72 2.3 NNW 28 33 15 18 1026.1 1026.1 0.0
03/01:30pm 12.0 6.6 6.5 69 2.6 N 24 28 13 15 1026.1 1026.1 0.0
03/01:00pm 11.7 6.6 6.0 68 2.7 N 22 30 12 16 1026.6 1026.6 0.0
03/12:30pm 12.8 7.7 5.9 63 3.2 N 22 28 12 15 1027.0 1027.0 0.0
03/12:00pm 11.9 7.7 5.8 66 2.8 NNW 17 22 9 12 1027.7 1027.7 0.0
03/11:30am 11.6 6.7 5.3 65 2.9 NNW 20 26 11 14 1028.3 1028.3 0.0
03/11:00am 11.9 7.6 5.3 64 3.1 NNW 17 24 9 13 1028.7 1028.7 0.0
03/10:30am 11.7 7.2 6.0 68 2.7 NNW 19 24 10 13 1028.7 1028.7 0.0
03/10:00am 11.4 6.9 5.9 69 2.6 N 19 22 10 12 1028.7 1028.7 0.0
03/09:30am 11.3 7.1 5.8 69 2.5 NNW 17 20 9 11 1028.7 1028.7 0.0
03/09:00am 11.2 7.0 5.7 69 2.5 N 17 20 9 11 1028.5 1028.5 0.0
03/08:30am 10.9 8.3 6.1 72 2.2 NNW 9 17 5 9 1028.7 1028.7 0.0
03/08:00am 10.3 6.9 5.7 73 2.1 NW 13 15 7 8 1028.9 1028.9 0.0
03/07:30am 10.0 5.2 5.8 75 1.9 NW 20 22 11 12 1028.8 1028.8 0.0
03/07:00am 9.4 6.0 5.9 79 1.6 NW 13 15 7 8 1028.4 1028.4 0.0
03/06:30am 9.6 7.1 6.5 81 1.4 NW 9 11 5 6 1028.3 1028.3 0.0
03/06:00am 9.4 5.7 6.5 82 1.3 NW 15 17 8 9 1028.2 1028.2 0.0
03/05:30am 9.2 6.2 6.1 81 1.4 NNW 11 15 6 8 1028.1 1028.1 0.0
03/05:00am 9.5 5.7 5.7 77 1.7 NW 15 17 8 9 1028.3 1028.3 0.0
03/04:30am 9.2 4.4 4.4 72 2.1 NW 19 19 10 10 1028.4 1028.4 0.0
03/04:00am 9.5 5.2 3.5 66 2.6 W 15 17 8 9 1028.8 1028.8 0.0
03/03:30am 10.2 6.0 3.9 65 2.8 WNW 15 15 8 8 1029.0 1029.0 0.0
03/03:00am 10.2 6.5 4.4 67 2.6 NW 13 13 7 7 1029.2 1029.2 0.0
03/02:30am 10.8 8.5 4.9 67 2.7 NW 6 9 3 5 1029.3 1029.3 0.0
03/02:00am 11.6 10.0 4.6 62 3.2 ENE 2 6 1 3 1029.2 1029.2 0.0
03/01:30am 11.8 9.4 5.2 64 3.0 E 7 11 4 6 1029.2 1029.2 0.0
03/01:00am 11.9 9.6 5.5 65 3.0 E 7 11 4 6 1029.4 1029.4 0.0
03/12:30am 11.9 9.3 6.0 67 2.7 ENE 9 13 5 7 1029.7 1029.7 0.0
03/12:00am 11.9 9.3 6.0 67 2.7 E 9 13 5 7 1030.1 1030.2 0.0
 
Date/Time
CST
Temp
°C
App
Temp
°C
Dew
Point
Rel
Hum
%
Delta-T
°C
Wind Press
QNH
hPa
Press
MSL
hPa
Rain
since 9 am
mm
Dir
 
Spd
km/h
Gust
km/h
Spd
kts
Gust
kts
02/11:30pm 11.9 8.5 5.8 66 2.8 E 13 17 7 9 1030.2 1030.3 0.0
02/11:00pm 11.9 8.5 6.0 67 2.8 E 13 17 7 9 1030.3 1030.4 0.0
02/10:30pm 11.6 10.3 4.3 61 3.3 CALM 0 0 0 0 1030.4 1030.5 0.0
02/10:00pm 11.5 10.3 4.5 62 3.2 CALM 0 0 0 0 1030.5 1030.6 0.0
02/09:30pm 11.6 10.3 4.1 60 3.3 CALM 0 2 0 1 1030.7 1030.8 0.0
02/09:00pm 11.7 8.6 3.7 58 3.5 SSE 9 11 5 6 1030.7 1030.8 0.0
02/08:30pm 12.0 9.0 4.2 59 3.5 SSE 9 13 5 7 1030.6 1030.7 0.0
02/08:00pm 11.9 8.6 4.6 61 3.3 SSE 11 17 6 9 1030.4 1030.5 0.0
02/07:30pm 12.1 8.5 5.0 62 3.2 SSE 13 19 7 10 1030.0 1030.0 0.0
02/07:00pm 12.2 8.5 4.7 60 3.4 SSE 13 22 7 12 1030.0 1030.0 0.0
02/06:30pm 12.3 7.5 4.8 60 3.4 SSE 19 24 10 13 1029.7 1029.7 0.0
02/06:00pm 12.4 8.2 5.8 64 3.1 SSE 17 24 9 13 1029.6 1029.6 0.0
02/05:30pm 12.5 8.6 5.4 62 3.3 SSE 15 19 8 10 1029.4 1029.4 0.0
02/05:00pm 12.5 9.0 5.4 62 3.3 SSE 13 19 7 10 1029.3 1029.3 0.0
02/04:30pm 12.6 8.7 5.5 62 3.3 S 15 20 8 11 1029.6 1029.6 0.0
02/04:00pm 12.9 9.2 6.3 64 3.1 SSE 15 20 8 11 1029.5 1029.5 0.0
02/03:30pm 13.0 9.0 6.6 65 3.0 SSE 17 24 9 13 1029.0 1029.0 0.0
02/03:00pm 13.2 9.2 6.5 64 3.2 SSE 17 22 9 12 1028.8 1028.8 0.0
02/02:30pm 13.1 8.5 5.8 61 3.4 S 19 24 10 13 1028.9 1028.9 0.0
02/02:00pm 13.4 9.2 5.6 59 3.7 S 17 22 9 12 1029.1 1029.1 0.0
02/01:30pm 13.5 10.0 5.4 58 3.8 S 13 20 7 11 1029.6 1029.6 0.0
02/01:00pm 13.4 8.9 6.0 61 3.5 S 19 24 10 13 1029.5 1029.5 0.0
02/12:30pm 13.1 7.5 5.5 60 3.5 S 24 32 13 17 1029.4 1029.4 0.0
02/12:00pm 13.2 9.5 6.1 62 3.3 S 15 24 8 13 1029.7 1029.7 0.0
02/11:30am 13.2 9.2 6.5 64 3.2 S 17 24 9 13 1029.8 1029.8 0.0
02/11:00am 13.0 7.1 5.9 62 3.4 S 26 33 14 18 1029.8 1029.8 0.0
02/10:30am 12.9 6.7 6.0 63 3.2 S 28 37 15 20 1029.5 1029.5 0.0
02/10:00am 13.2 8.8 7.2 67 2.9 SSW 20 28 11 15 1029.2 1029.2 0.0

Other Formats:

Comma delimited format used in spreadsheet applications
http://www.bom.gov.au/fwo/IDS60801/IDS60801.94822.axf

JavaScript Object Notation format (JSON) in row-major order
http://www.bom.gov.au/fwo/IDS60801/IDS60801.94822.json